createdAt,value
2018-10-05T00:00:03.934Z,95.61
2018-10-05T00:01:03.958Z,95.70
2018-10-05T00:02:04.000Z,95.61
2018-10-05T00:03:04.000Z,95.89
2018-10-05T00:04:25.044Z,96.46
2018-10-05T00:05:04.061Z,96.32
2018-10-05T00:06:04.084Z,95.94
2018-10-05T00:07:04.128Z,96.42
2018-10-05T00:08:04.135Z,95.61
2018-10-05T00:09:04.157Z,95.70
2018-10-05T00:10:25.194Z,95.70
2018-10-05T00:11:04.211Z,95.79
2018-10-05T00:12:04.247Z,95.61
2018-10-05T00:13:04.255Z,95.79
2018-10-05T00:14:04.457Z,95.89
2018-10-05T00:15:04.306Z,96.27
2018-10-05T00:16:25.353Z,95.79
2018-10-05T00:17:04.375Z,95.51
2018-10-05T00:18:04.371Z,95.32
2018-10-05T00:19:04.410Z,95.51
2018-10-05T00:20:04.420Z,95.51
2018-10-05T00:21:04.441Z,95.32
2018-10-05T00:22:25.499Z,95.70
2018-10-05T00:23:04.493Z,95.03
2018-10-05T00:24:04.517Z,95.98
2018-10-05T00:25:04.553Z,96.17
2018-10-05T00:26:04.593Z,95.98
2018-10-05T00:27:04.661Z,96.61
2018-10-05T00:28:25.653Z,96.13
2018-10-05T00:29:04.651Z,96.03
2018-10-05T00:30:04.695Z,96.32
2018-10-05T00:31:04.693Z,96.61
2018-10-05T00:32:04.739Z,96.98
2018-10-05T00:33:04.779Z,97.08
2018-10-05T00:34:25.832Z,95.84
2018-10-05T00:35:04.805Z,95.89
2018-10-05T00:36:04.963Z,95.51
2018-10-05T00:37:04.843Z,94.84
2018-10-05T00:38:04.956Z,94.27
2018-10-05T00:39:04.928Z,93.79
2018-10-05T00:40:25.950Z,93.79
2018-10-05T00:41:04.946Z,93.88
2018-10-05T00:42:04.974Z,93.79
2018-10-05T00:43:05.005Z,93.70
2018-10-05T00:44:05.062Z,93.79
2018-10-05T00:45:05.052Z,94.12
2018-10-05T00:46:26.220Z,93.79
2018-10-05T00:47:05.110Z,94.46
2018-10-05T00:48:05.133Z,94.17
2018-10-05T00:49:05.196Z,94.93
2018-10-05T00:50:05.171Z,94.93
2018-10-05T00:51:05.204Z,95.51
2018-10-05T00:52:26.258Z,95.70
2018-10-05T00:53:05.304Z,95.03
2018-10-05T00:54:05.286Z,95.32
2018-10-05T00:55:05.294Z,95.51
2018-10-05T00:56:05.348Z,95.51
2018-10-05T00:57:05.329Z,95.41
2018-10-05T00:58:26.399Z,95.61
2018-10-05T00:59:05.405Z,95.98
2018-10-05T01:00:05.422Z,95.70
2018-10-05T01:01:05.475Z,95.79
2018-10-05T01:02:05.464Z,95.51
2018-10-05T01:03:05.481Z,95.03
2018-10-05T01:04:26.539Z,94.65
2018-10-05T01:05:05.557Z,94.93
2018-10-05T01:06:05.566Z,95.22
2018-10-05T01:07:05.601Z,95.32
2018-10-05T01:08:05.627Z,95.70
2018-10-05T01:09:05.637Z,95.79
2018-10-05T01:10:26.690Z,95.98
2018-10-05T01:11:05.708Z,95.70
2018-10-05T01:12:05.702Z,95.41
2018-10-05T01:13:05.731Z,95.41
2018-10-05T01:14:05.772Z,95.51
2018-10-05T01:15:05.801Z,95.51
2018-10-05T01:16:26.838Z,94.65
2018-10-05T01:17:05.838Z,94.46
2018-10-05T01:18:05.868Z,94.27
2018-10-05T01:19:05.892Z,94.17
2018-10-05T01:20:05.918Z,92.88
2018-10-05T01:21:05.940Z,94.12
2018-10-05T01:22:26.979Z,92.69
2018-10-05T01:23:05.992Z,93.26
2018-10-05T01:24:06.008Z,93.70
2018-10-05T01:25:06.037Z,93.70
2018-10-05T01:26:06.064Z,93.88
2018-10-05T01:27:06.082Z,94.36
2018-10-05T01:28:27.116Z,94.46
2018-10-05T01:29:06.145Z,94.74
2018-10-05T01:30:06.147Z,95.12
2018-10-05T01:31:06.223Z,95.51
2018-10-05T01:32:06.265Z,95.89
2018-10-05T01:33:06.231Z,95.70
2018-10-05T01:34:27.274Z,95.70
2018-10-05T01:35:06.280Z,95.70
2018-10-05T01:36:06.297Z,96.37
2018-10-05T01:37:06.327Z,96.27
2018-10-05T01:38:06.337Z,96.27
2018-10-05T01:39:06.385Z,95.98
2018-10-05T01:40:27.422Z,96.17
2018-10-05T01:41:06.426Z,95.70
2018-10-05T01:42:06.473Z,95.32
2018-10-05T01:43:06.470Z,95.32
2018-10-05T01:44:06.516Z,95.61
2018-10-05T01:45:06.534Z,94.93
2018-10-05T01:46:27.564Z,95.12
2018-10-05T01:47:06.568Z,94.65
2018-10-05T01:48:06.606Z,94.27
2018-10-05T01:49:06.628Z,93.98
2018-10-05T01:50:06.682Z,94.17
2018-10-05T01:51:06.674Z,94.07
2018-10-05T01:52:27.722Z,94.07
2018-10-05T01:53:06.838Z,94.27
2018-10-05T01:54:06.747Z,93.79
2018-10-05T01:55:06.836Z,94.07
2018-10-05T01:56:06.806Z,93.98
2018-10-05T01:57:06.873Z,94.27
2018-10-05T01:58:27.873Z,94.46
2018-10-05T01:59:06.860Z,94.55
2018-10-05T02:00:06.923Z,94.93
2018-10-05T02:01:06.927Z,95.22
2018-10-05T02:02:06.967Z,95.12
2018-10-05T02:03:06.967Z,94.65
2018-10-05T02:04:28.008Z,94.74
2018-10-05T02:05:07.018Z,94.65
2018-10-05T02:06:07.047Z,94.74
2018-10-05T02:07:07.079Z,94.84
2018-10-05T02:08:07.109Z,94.65
2018-10-05T02:09:07.139Z,94.84
2018-10-05T02:10:28.201Z,94.36
2018-10-05T02:11:07.166Z,94.27
2018-10-05T02:12:07.198Z,93.12
2018-10-05T02:13:07.218Z,94.02
2018-10-05T02:14:07.261Z,93.26
2018-10-05T02:15:07.301Z,93.16
2018-10-05T02:16:28.307Z,92.69
2018-10-05T02:17:07.409Z,93.07
2018-10-05T02:18:07.343Z,93.21
2018-10-05T02:19:07.388Z,93.55
2018-10-05T02:20:07.394Z,93.60
2018-10-05T02:21:07.435Z,93.50
2018-10-05T02:22:28.470Z,93.07
2018-10-05T02:23:07.463Z,92.59
2018-10-05T02:24:07.546Z,92.79
2018-10-05T02:25:07.509Z,92.88
2018-10-05T02:26:07.529Z,92.88
2018-10-05T02:27:07.558Z,92.69
2018-10-05T02:28:28.610Z,92.11
2018-10-05T02:29:07.609Z,92.11
2018-10-05T02:30:07.655Z,92.11
2018-10-05T02:31:07.681Z,92.02
2018-10-05T02:33:33.101Z,91.83
2018-10-05T02:34:54.151Z,92.11
2018-10-05T02:35:33.165Z,92.11
2018-10-05T02:36:33.189Z,92.30
2018-10-05T02:37:34.183Z,92.30
2018-10-05T02:38:33.236Z,91.93
2018-10-05T02:39:33.247Z,91.64
2018-10-05T02:40:54.323Z,92.30
2018-10-05T02:41:33.345Z,92.30
2018-10-05T02:42:33.315Z,92.21
2018-10-05T02:43:33.341Z,92.21
2018-10-05T02:44:33.379Z,91.74
2018-10-05T02:45:33.439Z,91.74
2018-10-05T02:46:54.427Z,91.74
2018-10-05T02:47:33.440Z,91.35
2018-10-05T02:48:33.483Z,91.16
2018-10-05T02:49:33.491Z,91.45
2018-10-05T02:50:33.626Z,91.45
2018-10-05T02:51:33.539Z,91.74
2018-10-05T02:52:54.610Z,91.45
2018-10-05T02:53:33.597Z,91.83
2018-10-05T02:54:33.614Z,91.35
2018-10-05T02:56:58.105Z,91.45
2018-10-05T02:57:58.122Z,91.74
2018-10-05T02:59:19.174Z,91.35
2018-10-05T02:59:58.204Z,91.64
2018-10-05T03:00:58.204Z,91.35
2018-10-05T03:01:58.248Z,91.64
2018-10-05T03:02:58.264Z,91.45
2018-10-05T03:03:58.278Z,91.25
2018-10-05T03:05:19.321Z,91.93
2018-10-05T03:05:58.329Z,91.64
2018-10-05T03:06:58.351Z,92.30
2018-10-05T03:07:58.368Z,92.30
2018-10-05T03:08:58.399Z,91.93
2018-10-05T03:09:58.437Z,92.97
2018-10-05T03:11:19.456Z,92.83
2018-10-05T03:11:58.482Z,92.59
2018-10-05T03:12:58.488Z,92.93
2018-10-05T03:13:58.513Z,92.93
2018-10-05T03:14:58.559Z,92.45
2018-10-05T03:15:58.575Z,93.31
2018-10-05T03:17:19.605Z,93.50
2018-10-05T03:17:58.637Z,93.79
2018-10-05T03:18:58.641Z,93.98
2018-10-05T03:19:58.751Z,93.70
2018-10-05T03:20:58.719Z,93.88
2018-10-05T03:21:58.855Z,94.27
2018-10-05T03:23:19.751Z,93.79
2018-10-05T03:23:58.835Z,94.27
2018-10-05T03:24:58.777Z,94.36
2018-10-05T03:25:58.861Z,93.70
2018-10-05T03:26:58.852Z,94.07
2018-10-05T03:27:58.901Z,93.21
2018-10-05T03:29:19.905Z,93.70
2018-10-05T03:29:58.918Z,93.21
2018-10-05T03:30:58.932Z,93.02
2018-10-05T03:31:58.964Z,92.64
2018-10-05T03:32:58.999Z,92.74
2018-10-05T03:33:59.010Z,91.74
2018-10-05T03:35:20.043Z,91.83
2018-10-05T03:35:59.078Z,91.83
2018-10-05T03:36:59.131Z,91.83
2018-10-05T03:37:59.108Z,90.78
2018-10-05T03:38:59.152Z,90.68
2018-10-05T03:39:59.159Z,90.49
2018-10-05T03:41:20.192Z,90.68
2018-10-05T03:41:59.214Z,90.49
2018-10-05T03:42:59.231Z,89.73
2018-10-05T03:43:59.426Z,89.63
2018-10-05T03:44:59.329Z,89.15
2018-10-05T03:45:59.379Z,90.01
2018-10-05T03:47:20.347Z,89.34
2018-10-05T03:47:59.387Z,89.53
2018-10-05T03:48:59.388Z,90.01
2018-10-05T03:49:59.397Z,90.11
2018-10-05T03:50:59.438Z,89.82
2018-10-05T03:51:59.469Z,90.01
2018-10-05T03:53:20.491Z,89.73
2018-10-05T03:53:59.497Z,90.01
2018-10-05T03:54:59.533Z,90.11
2018-10-05T03:55:59.589Z,90.01
2018-10-05T03:56:59.625Z,90.11
2018-10-05T03:57:59.619Z,89.92
2018-10-05T03:59:20.641Z,89.25
2018-10-05T03:59:59.715Z,89.06
2018-10-05T04:00:59.713Z,89.63
2018-10-05T04:01:59.733Z,89.06
2018-10-05T04:02:59.752Z,89.34
2018-10-05T04:03:59.768Z,89.44
2018-10-05T04:05:20.846Z,89.44
2018-10-05T04:05:59.799Z,89.25
2018-10-05T04:06:59.880Z,89.06
2018-10-05T04:07:59.836Z,89.63
2018-10-05T04:08:59.886Z,90.30
2018-10-05T04:09:59.882Z,90.30
2018-10-05T04:11:20.936Z,89.82
2018-10-05T04:11:59.954Z,89.73
2018-10-05T04:12:59.968Z,89.44
2018-10-05T04:14:00.014Z,89.44
2018-10-05T04:15:00.053Z,90.01
2018-10-05T04:16:00.078Z,89.44
2018-10-05T04:17:21.123Z,89.73
2018-10-05T04:18:00.099Z,90.20
2018-10-05T04:19:00.214Z,90.39
2018-10-05T04:20:00.159Z,89.82
2018-10-05T04:21:00.217Z,90.01
2018-10-05T04:22:00.213Z,89.53
2018-10-05T04:23:21.237Z,89.25
2018-10-05T04:24:00.240Z,89.44
2018-10-05T04:25:00.279Z,88.77
2018-10-05T04:26:00.327Z,88.68
2018-10-05T04:27:00.341Z,89.15
2018-10-05T04:28:00.346Z,88.96
2018-10-05T04:29:21.415Z,88.77
2018-10-05T04:30:00.386Z,88.68
2018-10-05T04:31:00.400Z,88.96
2018-10-05T04:32:00.446Z,88.87
2018-10-05T04:33:00.448Z,89.25
2018-10-05T04:34:00.482Z,89.15
2018-10-05T04:35:21.528Z,89.34
2018-10-05T04:36:00.530Z,89.34
2018-10-05T04:37:00.554Z,89.53
2018-10-05T04:38:00.588Z,90.01
2018-10-05T04:39:00.638Z,89.92
2018-10-05T04:40:00.632Z,89.82
2018-10-05T04:41:21.736Z,90.49
2018-10-05T04:42:00.714Z,90.30
2018-10-05T04:43:01.674Z,89.53
2018-10-05T04:44:00.732Z,89.92
2018-10-05T04:45:00.764Z,88.87
2018-10-05T04:46:00.778Z,89.53
2018-10-05T04:47:21.809Z,90.11
2018-10-05T04:48:00.826Z,89.15
2018-10-05T04:49:00.839Z,89.82
2018-10-05T04:50:00.867Z,89.73
2018-10-05T04:51:00.908Z,90.39
2018-10-05T04:52:00.937Z,90.59
2018-10-05T04:53:21.983Z,91.06
2018-10-05T04:54:00.976Z,90.83
2018-10-05T04:55:01.013Z,91.50
2018-10-05T04:56:01.023Z,91.35
2018-10-05T04:57:01.049Z,91.45
2018-10-05T04:58:01.071Z,91.83
2018-10-05T04:59:22.124Z,91.74
2018-10-05T05:00:01.115Z,90.78
2018-10-05T05:01:01.144Z,90.59
2018-10-05T05:02:01.178Z,90.39
2018-10-05T05:03:01.216Z,90.49
2018-10-05T05:04:01.222Z,89.82
2018-10-05T05:05:22.290Z,89.92
2018-10-05T05:06:01.292Z,89.44
2018-10-05T05:07:01.302Z,89.44
2018-10-05T05:08:01.318Z,89.15
2018-10-05T05:09:01.339Z,89.34
2018-10-05T05:10:01.364Z,90.01
2018-10-05T05:11:22.455Z,90.01
2018-10-05T05:12:01.425Z,89.63
2018-10-05T05:13:01.447Z,88.77
2018-10-05T05:14:01.461Z,89.44
2018-10-05T05:18:10.655Z,89.15
2018-10-05T05:18:49.475Z,89.34
2018-10-05T05:19:49.341Z,89.44
2018-10-05T05:20:49.209Z,89.25
2018-10-05T05:21:49.217Z,89.25
2018-10-05T05:22:49.291Z,89.63
2018-10-05T05:24:10.279Z,89.15
2018-10-05T05:24:49.299Z,89.15
2018-10-05T05:25:49.317Z,89.06
2018-10-05T05:26:49.351Z,89.06
2018-10-05T05:27:49.394Z,89.34
2018-10-05T05:28:49.403Z,90.20
2018-10-05T05:30:11.149Z,89.92
2018-10-05T05:30:49.469Z,89.73
2018-10-05T05:45:04.598Z,88.87
2018-10-05T05:46:04.611Z,88.10
2018-10-05T05:47:04.654Z,89.25
2018-10-05T05:48:25.696Z,88.96
2018-10-05T05:49:04.717Z,89.06
2018-10-05T05:50:04.725Z,89.34
2018-10-05T05:51:04.748Z,89.44
2018-10-05T05:52:04.819Z,88.77
2018-10-05T05:53:04.799Z,89.53
2018-10-05T05:54:25.916Z,89.06
2018-10-05T05:55:04.835Z,89.44
2018-10-05T05:56:04.867Z,90.01
2018-10-05T05:57:04.889Z,90.01
2018-10-05T05:58:04.951Z,91.06
2018-10-05T05:59:04.931Z,90.01
2018-10-05T06:00:26.005Z,90.11
2018-10-05T06:01:05.017Z,90.59
2018-10-05T06:02:05.007Z,90.78
2018-10-05T06:03:05.035Z,91.16
2018-10-05T06:04:05.079Z,90.78
2018-10-05T06:05:05.076Z,90.68
2018-10-05T06:06:26.749Z,90.92
2018-10-05T06:07:05.266Z,91.64
2018-10-05T06:08:05.266Z,91.54
2018-10-05T06:09:05.226Z,91.54
2018-10-05T06:10:05.322Z,91.64
2018-10-05T06:12:17.299Z,91.50
2018-10-05T06:12:38.880Z,92.30
2018-10-05T06:13:17.872Z,91.45
2018-10-05T06:14:17.926Z,90.39
2018-10-05T06:15:17.961Z,89.92
2018-10-05T06:16:17.987Z,90.20
2018-10-05T06:17:17.960Z,89.82
2018-10-05T06:18:38.988Z,90.30
2018-10-05T06:19:18.011Z,90.11
2018-10-05T06:20:18.231Z,90.20
2018-10-05T06:21:18.063Z,90.01
2018-10-05T06:22:18.262Z,90.11
2018-10-05T06:23:18.158Z,89.92
2018-10-05T06:24:39.165Z,90.11
2018-10-05T06:25:18.301Z,89.82
2018-10-05T06:26:18.189Z,90.01
2018-10-05T06:27:18.259Z,88.87
2018-10-05T06:28:18.238Z,89.34
2018-10-05T06:29:18.283Z,89.06
2018-10-05T06:30:39.399Z,88.48
2018-10-05T06:31:18.404Z,88.01
2018-10-05T06:32:18.340Z,87.72
2018-10-05T06:33:18.431Z,87.53
2018-10-05T06:34:18.439Z,88.10
2018-10-05T06:35:18.426Z,87.24
2018-10-05T06:36:39.560Z,86.86
2018-10-05T06:37:18.509Z,87.15
2018-10-05T06:38:18.499Z,87.43
2018-10-05T06:39:18.508Z,87.24
2018-10-05T06:40:18.523Z,86.96
2018-10-05T06:41:18.553Z,87.24
2018-10-05T06:42:39.643Z,86.57
2018-10-05T06:43:19.075Z,86.71
2018-10-05T06:44:18.635Z,86.52
2018-10-05T06:45:18.654Z,86.43
2018-10-05T06:46:18.670Z,86.33
2018-10-05T06:47:18.720Z,86.33
2018-10-05T06:48:40.293Z,86.52
2018-10-05T06:49:18.744Z,86.61
2018-10-05T06:50:18.798Z,86.43
2018-10-05T06:51:18.848Z,87.15
2018-10-05T06:52:18.819Z,87.43
2018-10-05T06:53:18.886Z,86.76
2018-10-05T06:54:39.889Z,86.29
2018-10-05T06:55:18.902Z,86.71
2018-10-05T06:56:18.915Z,86.43
2018-10-05T06:57:18.950Z,86.71
2018-10-05T06:58:18.959Z,86.61
2018-10-05T06:59:19.000Z,85.85
2018-10-05T07:00:40.036Z,85.75
2018-10-05T07:01:19.059Z,85.66
2018-10-05T07:02:19.091Z,85.38
2018-10-05T07:03:19.092Z,85.57
2018-10-05T07:04:19.135Z,84.99
2018-10-05T07:05:19.141Z,85.75
2018-10-05T07:06:40.226Z,85.66
2018-10-05T07:07:19.196Z,85.66
2018-10-05T07:08:19.215Z,85.94
2018-10-05T07:09:19.254Z,86.04
2018-10-05T07:10:19.274Z,85.66
2018-10-05T07:11:19.333Z,85.66
2018-10-05T07:12:40.361Z,85.66
2018-10-05T07:13:19.341Z,85.47
2018-10-05T07:14:19.363Z,85.66
2018-10-05T07:15:19.388Z,86.04
2018-10-05T07:16:19.418Z,85.47
2018-10-05T07:17:19.515Z,85.94
2018-10-05T07:18:40.489Z,85.38
2018-10-05T07:19:19.488Z,84.89
2018-10-05T07:20:19.570Z,84.52
2018-10-05T07:21:19.582Z,83.84
2018-10-05T07:22:19.664Z,83.84
2018-10-05T07:23:19.632Z,83.65
2018-10-05T07:24:40.647Z,83.46
2018-10-05T07:25:19.648Z,83.65
2018-10-05T07:26:19.655Z,83.17
2018-10-05T07:27:19.720Z,82.93
2018-10-05T07:28:19.789Z,83.37
2018-10-05T07:29:19.789Z,82.89
2018-10-05T07:30:40.783Z,83.37
2018-10-05T07:31:19.769Z,83.08
2018-10-05T07:32:19.821Z,83.03
2018-10-05T07:33:19.878Z,83.37
2018-10-05T07:34:19.931Z,83.27
2018-10-05T07:35:19.871Z,83.46
2018-10-05T07:36:40.933Z,83.65
2018-10-05T07:37:20.014Z,83.46
2018-10-05T07:38:20.003Z,84.23
2018-10-05T07:39:20.011Z,85.09
2018-10-05T07:40:20.073Z,84.80
2018-10-05T07:41:20.079Z,84.80
2018-10-05T07:42:41.070Z,84.42
2018-10-05T07:43:20.085Z,84.70
2018-10-05T07:44:20.191Z,83.89
2018-10-05T07:45:20.125Z,82.93
2018-10-05T07:46:20.229Z,83.22
2018-10-05T07:47:20.191Z,84.08
2018-10-05T07:48:41.235Z,84.03
2018-10-05T07:49:20.268Z,83.31
2018-10-05T07:50:20.308Z,83.69
2018-10-05T07:51:20.317Z,82.93
2018-10-05T07:52:20.300Z,83.40
2018-10-05T07:53:20.366Z,83.40
2018-10-05T07:54:41.546Z,83.40
2018-10-05T07:55:20.377Z,83.12
2018-10-05T07:56:20.403Z,82.74
2018-10-05T07:57:20.535Z,81.68
2018-10-05T07:58:20.457Z,82.17
2018-10-05T07:59:20.518Z,81.88
2018-10-05T08:00:41.607Z,82.07
2018-10-05T08:01:20.524Z,82.17
2018-10-05T08:02:20.556Z,82.83
2018-10-05T08:03:20.594Z,82.83
2018-10-05T08:04:20.593Z,81.25
2018-10-05T08:05:20.616Z,81.44
2018-10-05T08:06:41.663Z,81.34
2018-10-05T08:07:20.665Z,81.82
2018-10-05T08:08:20.798Z,81.82
2018-10-05T08:09:20.804Z,82.30
2018-10-05T08:10:20.787Z,81.97
2018-10-05T08:11:20.791Z,82.49
2018-10-05T08:12:41.834Z,82.59
2018-10-05T08:13:20.852Z,82.49
2018-10-05T08:14:20.903Z,81.63
2018-10-05T08:15:20.869Z,81.25
2018-10-05T08:16:20.923Z,81.05
2018-10-05T08:17:20.945Z,81.20
2018-10-05T08:18:42.041Z,79.85
2018-10-05T08:19:20.991Z,80.38
2018-10-05T08:20:21.013Z,81.34
2018-10-05T08:21:21.055Z,81.25
2018-10-05T08:22:21.065Z,81.15
2018-10-05T08:23:21.098Z,80.96
2018-10-05T08:24:42.132Z,81.10
2018-10-05T08:25:21.157Z,80.43
2018-10-05T08:26:21.173Z,80.71
2018-10-05T08:27:21.189Z,80.14
2018-10-05T08:28:21.241Z,79.85
2018-10-05T08:29:21.251Z,79.66
2018-10-05T08:30:42.272Z,80.14
2018-10-05T08:31:21.269Z,80.71
2018-10-05T08:32:21.323Z,79.75
2018-10-05T08:33:21.349Z,79.47
2018-10-05T08:34:21.398Z,78.03
2018-10-05T08:35:21.364Z,78.22
2018-10-05T08:36:42.418Z,78.89
2018-10-05T08:37:21.434Z,78.42
2018-10-05T08:38:21.445Z,77.94
2018-10-05T08:39:21.469Z,77.94
2018-10-05T08:40:21.578Z,78.22
2018-10-05T08:41:21.519Z,78.51
2018-10-05T08:42:42.571Z,79.57
2018-10-05T08:43:21.601Z,78.22
2018-10-05T08:44:21.591Z,78.22
2018-10-05T08:45:21.634Z,78.89
2018-10-05T08:46:21.655Z,78.99
2018-10-05T08:47:21.687Z,78.22
2018-10-05T08:48:42.717Z,77.46
2018-10-05T08:49:21.735Z,76.79
2018-10-05T08:50:21.766Z,77.94
2018-10-05T08:51:21.793Z,77.94
2018-10-05T08:52:21.948Z,76.73
2018-10-05T08:53:21.835Z,76.54
2018-10-05T08:54:42.875Z,77.40
2018-10-05T08:55:21.883Z,77.17
2018-10-05T08:56:21.920Z,77.59
2018-10-05T08:57:21.955Z,76.44
2018-10-05T08:58:22.001Z,76.35
2018-10-05T08:59:21.982Z,76.64
2018-10-05T09:00:43.827Z,78.17
2018-10-05T09:01:22.055Z,77.59
2018-10-05T09:02:22.068Z,78.07
2018-10-05T09:03:22.110Z,77.50
2018-10-05T09:04:22.110Z,78.36
2018-10-05T09:05:22.146Z,78.07
2018-10-05T09:06:43.203Z,78.07
2018-10-05T09:07:22.173Z,78.59
2018-10-05T09:08:22.208Z,78.69
2018-10-05T09:09:22.230Z,78.40
2018-10-05T09:10:22.263Z,78.20
2018-10-05T09:11:22.302Z,78.11
2018-10-05T09:12:43.330Z,77.76
2018-10-05T09:13:22.336Z,76.14
2018-10-05T09:14:22.345Z,73.07
2018-10-05T09:15:22.385Z,71.47
2018-10-05T09:16:22.433Z,70.90
2018-10-05T09:17:22.443Z,71.09
2018-10-05T09:18:43.474Z,70.55
2018-10-05T09:19:22.487Z,69.01
2018-10-05T09:20:22.495Z,68.82
2018-10-05T09:21:22.544Z,67.67
2018-10-05T09:22:22.558Z,68.37
2018-10-05T09:23:22.581Z,68.47
2018-10-05T09:24:43.718Z,68.47
2018-10-05T09:25:22.674Z,69.53
2018-10-05T09:26:22.687Z,70.78
2018-10-05T09:27:22.681Z,71.19
2018-10-05T09:28:22.719Z,68.95
2018-10-05T09:29:22.759Z,68.60
2018-10-05T09:30:43.875Z,67.35
2018-10-05T09:31:22.783Z,66.49
2018-10-05T09:32:22.829Z,66.39
2018-10-05T09:33:22.835Z,65.33
2018-10-05T09:34:22.881Z,64.60
2018-10-05T09:35:22.920Z,63.54
2018-10-05T09:36:44.010Z,66.74
2018-10-05T09:37:22.996Z,66.17
2018-10-05T09:38:22.998Z,64.05
2018-10-05T09:39:23.046Z,63.76
2018-10-05T09:40:23.097Z,62.93
2018-10-05T09:41:23.051Z,61.97
2018-10-05T09:42:44.146Z,62.96
2018-10-05T09:43:23.194Z,65.37
2018-10-05T09:44:23.136Z,63.54
2018-10-05T09:45:23.270Z,62.32
2018-10-05T09:46:23.190Z,59.72
2018-10-05T09:47:23.336Z,59.17
2018-10-05T09:48:44.267Z,55.87
2018-10-05T09:49:23.279Z,56.76
2018-10-05T09:50:23.306Z,57.37
2018-10-05T09:51:23.324Z,57.49
2018-10-05T09:52:23.454Z,55.90
2018-10-05T09:53:23.379Z,56.22
2018-10-05T09:54:44.420Z,53.69
2018-10-05T09:55:23.438Z,49.00
2018-10-05T09:56:23.468Z,47.77
2018-10-05T09:57:23.485Z,47.50
2018-10-05T09:58:23.513Z,45.95
2018-10-05T09:59:23.547Z,45.87
2018-10-05T10:00:44.588Z,44.05
2018-10-05T10:01:23.602Z,42.61
2018-10-05T10:02:23.627Z,41.98
2018-10-05T10:03:23.673Z,42.29
2018-10-05T10:04:23.700Z,39.98
2018-10-05T10:05:23.717Z,39.10
2018-10-05T10:06:44.889Z,39.82
2018-10-05T10:07:23.779Z,39.94
2018-10-05T10:08:23.858Z,37.43
2018-10-05T10:09:23.866Z,38.04
2018-10-05T10:10:23.883Z,37.13
2018-10-05T10:11:23.883Z,35.98
2018-10-05T10:12:44.914Z,36.16
2018-10-05T10:13:23.981Z,37.19
2018-10-05T10:14:23.980Z,36.24
2018-10-05T10:15:23.988Z,36.06
2018-10-05T10:16:24.054Z,34.79
2018-10-05T10:17:24.103Z,36.18
2018-10-05T10:18:45.095Z,36.63
2018-10-05T10:19:24.112Z,36.18
2018-10-05T10:20:24.132Z,36.47
2018-10-05T10:21:24.163Z,36.19
2018-10-05T10:22:24.200Z,36.29
2018-10-05T10:23:24.216Z,34.61
2018-10-05T10:24:45.273Z,34.61
2018-10-05T10:25:24.307Z,33.54
2018-10-05T10:26:24.298Z,34.03
2018-10-05T10:27:24.356Z,33.07
2018-10-05T10:28:24.489Z,33.26
2018-10-05T10:29:24.414Z,33.95
2018-10-05T10:30:45.455Z,36.10
2018-10-05T10:31:24.467Z,34.53
2018-10-05T10:32:24.488Z,36.00
2018-10-05T10:33:24.517Z,36.25
2018-10-05T10:34:24.629Z,37.39
2018-10-05T10:35:24.568Z,37.93
2018-10-05T10:36:45.648Z,37.39
2018-10-05T10:37:24.683Z,37.90
2018-10-05T10:38:24.689Z,40.50
2018-10-05T10:39:24.710Z,40.44
2018-10-05T10:40:24.744Z,41.00
2018-10-05T10:41:24.765Z,42.07
2018-10-05T10:42:45.832Z,40.96
2018-10-05T10:43:24.814Z,42.13
2018-10-05T10:44:24.845Z,45.10
2018-10-05T10:45:24.919Z,46.73
2018-10-05T10:46:24.916Z,48.16
2018-10-05T10:47:24.934Z,49.77
2018-10-05T10:48:46.008Z,51.10
2018-10-05T10:49:25.009Z,50.04
2018-10-05T10:50:25.049Z,47.84
2018-10-05T10:51:25.062Z,47.65
2018-10-05T10:52:25.115Z,46.56
2018-10-05T10:53:25.125Z,48.30
2018-10-05T10:54:46.179Z,50.04
2018-10-05T10:55:25.191Z,50.52
2018-10-05T10:56:25.333Z,50.91
2018-10-05T10:57:25.252Z,50.35
2018-10-05T10:58:25.500Z,49.87
2018-10-05T10:59:25.318Z,49.41
2018-10-05T11:00:46.451Z,47.53
2018-10-05T11:01:25.393Z,47.60
2018-10-05T11:02:25.400Z,47.09
2018-10-05T11:03:25.447Z,47.87
2018-10-05T11:04:25.542Z,49.51
2018-10-05T11:05:25.494Z,51.15
2018-10-05T11:06:46.546Z,49.68
2018-10-05T11:07:25.538Z,50.52
2018-10-05T11:08:25.570Z,50.81
2018-10-05T11:09:25.598Z,51.87
2018-10-05T11:10:25.642Z,51.58
2018-10-05T11:11:25.657Z,51.17
2018-10-05T11:12:46.737Z,52.04
2018-10-05T11:13:25.706Z,52.13
2018-10-05T11:14:25.738Z,51.65
2018-10-05T11:15:25.775Z,51.56
2018-10-05T11:16:25.792Z,51.92
2018-10-05T11:17:25.832Z,53.27
2018-10-05T11:18:46.878Z,54.22
2018-10-05T11:19:25.888Z,53.07
2018-10-05T11:20:25.919Z,53.74
2018-10-05T11:21:25.956Z,55.12
2018-10-05T11:22:25.968Z,54.13
2018-10-05T11:23:26.016Z,54.61
2018-10-05T11:24:47.051Z,54.32
2018-10-05T11:25:26.057Z,53.07
2018-10-05T11:26:26.085Z,52.87
2018-10-05T11:27:26.113Z,53.55
2018-10-05T11:28:26.142Z,54.42
2018-10-05T11:29:26.202Z,54.39
2018-10-05T11:30:47.235Z,55.45
2018-10-05T11:31:26.259Z,55.35
2018-10-05T11:32:26.277Z,54.78
2018-10-05T11:33:26.284Z,54.10
2018-10-05T11:34:26.343Z,53.65
2018-10-05T11:35:26.338Z,56.05
2018-10-05T11:36:47.392Z,55.19
2018-10-05T11:37:26.420Z,56.15
2018-10-05T11:38:26.443Z,56.73
2018-10-05T11:39:26.473Z,56.44
2018-10-05T11:40:26.491Z,53.39
2018-10-05T11:41:26.509Z,53.77
2018-10-05T11:42:47.550Z,53.51
2018-10-05T11:43:26.556Z,53.13
2018-10-05T11:44:26.602Z,49.77
2018-10-05T11:45:26.614Z,50.28
2018-10-05T11:46:26.699Z,51.05
2018-10-05T11:47:26.667Z,50.76
2018-10-05T11:48:47.764Z,49.73
2018-10-05T11:49:26.732Z,49.39
2018-10-05T11:50:26.761Z,47.60
2018-10-05T11:51:26.795Z,47.94
2018-10-05T11:52:26.932Z,44.48
2018-10-05T11:53:26.842Z,43.88
2018-10-05T11:54:47.899Z,45.52
2018-10-05T11:55:26.908Z,46.42
2018-10-05T11:56:26.927Z,47.45
2018-10-05T11:57:26.966Z,45.59
2018-10-05T11:58:27.001Z,47.16
2018-10-05T11:59:27.031Z,44.63
2018-10-05T12:00:48.084Z,45.31
2018-10-05T12:01:27.107Z,45.69
2018-10-05T12:02:27.174Z,46.15
2018-10-05T12:03:27.145Z,45.48
2018-10-05T12:04:27.194Z,45.57
2018-10-05T12:05:27.206Z,47.89
2018-10-05T12:06:48.265Z,48.93
2018-10-05T12:07:27.269Z,47.19
2018-10-05T12:08:27.305Z,48.54
2018-10-05T12:09:27.356Z,49.32
2018-10-05T12:10:27.371Z,50.57
2018-10-05T12:11:27.410Z,49.90
2018-10-05T12:12:48.458Z,49.87
2018-10-05T12:13:27.449Z,51.99
2018-10-05T12:14:27.498Z,53.03
2018-10-05T12:15:27.535Z,51.39
2018-10-05T12:16:27.545Z,50.23
2018-10-05T12:17:27.595Z,50.62
2018-10-05T12:18:48.625Z,49.84
2018-10-05T12:19:27.641Z,49.94
2018-10-05T12:20:27.662Z,50.49
2018-10-05T12:21:27.682Z,50.88
2018-10-05T12:22:27.716Z,50.01
2018-10-05T12:23:27.750Z,50.21
2018-10-05T12:24:48.801Z,53.00
2018-10-05T12:25:27.819Z,51.17
2018-10-05T12:26:27.887Z,50.78
2018-10-05T12:27:27.871Z,53.39
2018-10-05T12:28:27.938Z,56.25
2018-10-05T12:29:28.031Z,53.67
2018-10-05T12:30:48.967Z,53.27
2018-10-05T12:31:28.066Z,53.55
2018-10-05T12:32:28.009Z,51.46
2018-10-05T12:33:28.024Z,52.49
2018-10-05T12:34:28.068Z,53.55
2018-10-05T12:35:28.097Z,53.74
2018-10-05T12:36:49.161Z,55.38
2018-10-05T12:37:28.143Z,53.84
2018-10-05T12:38:28.179Z,53.45
2018-10-05T12:39:28.203Z,54.42
2018-10-05T12:40:28.241Z,54.42
2018-10-05T12:41:28.267Z,53.74
2018-10-05T12:42:49.307Z,53.84
2018-10-05T12:43:28.318Z,54.20
2018-10-05T12:44:28.359Z,54.03
2018-10-05T12:45:28.393Z,53.27
2018-10-05T12:46:28.415Z,55.19
2018-10-05T12:47:28.419Z,54.71
2018-10-05T12:48:49.486Z,56.25
2018-10-05T12:49:28.496Z,55.45
2018-10-05T12:50:28.506Z,55.45
2018-10-05T12:51:28.654Z,54.49
2018-10-05T12:52:28.576Z,52.85
2018-10-05T12:53:28.608Z,55.26
2018-10-05T12:54:49.630Z,52.85
2018-10-05T12:55:28.642Z,54.20
2018-10-05T12:56:28.704Z,53.23
2018-10-05T12:57:28.714Z,52.85
2018-10-05T12:58:28.737Z,54.00
2018-10-05T12:59:28.804Z,54.65
2018-10-05T13:00:49.813Z,55.62
2018-10-05T13:01:28.823Z,56.00
2018-10-05T13:02:28.861Z,55.78
2018-10-05T13:03:28.881Z,56.55
2018-10-05T13:04:28.909Z,56.07
2018-10-05T13:05:28.937Z,56.16
2018-10-05T13:06:49.984Z,55.49
2018-10-05T13:07:28.988Z,56.45
2018-10-05T13:08:29.009Z,56.52
2018-10-05T13:09:29.037Z,56.52
2018-10-05T13:10:29.071Z,57.22
2018-10-05T13:11:29.107Z,57.42